sensor_id;sensor_type;location;lat;lon;timestamp;temperature;humidity
14775;DHT22;7479;47.042;15.160;2023-09-19T06:55:21;17.50;99.90
14775;DHT22;7479;47.042;15.160;2023-09-19T07:39:19;19.10;99.90
14775;DHT22;7479;47.042;15.160;2023-09-19T07:44:14;18.80;99.90
14775;DHT22;7479;47.042;15.160;2023-09-19T07:49:09;18.50;99.90
14775;DHT22;7479;47.042;15.160;2023-09-19T07:54:03;18.50;99.90
14775;DHT22;7479;47.042;15.160;2023-09-19T08:14:42;19.00;99.90
14775;DHT22;7479;47.042;15.160;2023-09-19T08:19:37;19.10;99.90
14775;DHT22;7479;47.042;15.160;2023-09-19T08:24:34;19.30;99.90
14775;DHT22;7479;47.042;15.160;2023-09-19T08:29:27;19.60;99.90
14775;DHT22;7479;47.042;15.160;2023-09-19T08:34:23;20.00;99.90
14775;DHT22;7479;47.042;15.160;2023-09-19T08:39:17;20.30;99.90
14775;DHT22;7479;47.042;15.160;2023-09-19T08:44:11;20.70;99.90
14775;DHT22;7479;47.042;15.160;2023-09-19T08:49:07;21.00;99.90
14775;DHT22;7479;47.042;15.160;2023-09-19T08:54:07;21.20;99.90
14775;DHT22;7479;47.042;15.160;2023-09-19T08:59:03;21.50;99.90
14775;DHT22;7479;47.042;15.160;2023-09-19T09:04:01;21.70;99.90
14775;DHT22;7479;47.042;15.160;2023-09-19T09:08:55;21.80;99.90
14775;DHT22;7479;47.042;15.160;2023-09-19T09:13:51;21.80;99.90
14775;DHT22;7479;47.042;15.160;2023-09-19T09:18:45;22.10;99.90
14775;DHT22;7479;47.042;15.160;2023-09-19T09:23:38;22.50;99.90
14775;DHT22;7479;47.042;15.160;2023-09-19T09:28:34;22.70;99.90
14775;DHT22;7479;47.042;15.160;2023-09-19T09:33:32;22.80;99.90
14775;DHT22;7479;47.042;15.160;2023-09-19T09:38:27;23.20;99.90
14775;DHT22;7479;47.042;15.160;2023-09-19T09:43:26;23.30;99.90
14775;DHT22;7479;47.042;15.160;2023-09-19T09:48:25;23.30;99.90
14775;DHT22;7479;47.042;15.160;2023-09-19T09:53:26;23.60;99.90
14775;DHT22;7479;47.042;15.160;2023-09-19T09:58:22;24.10;99.90
14775;DHT22;7479;47.042;15.160;2023-09-19T10:03:19;24.60;99.90
14775;DHT22;7479;47.042;15.160;2023-09-19T10:08:15;24.90;99.90
14775;DHT22;7479;47.042;15.160;2023-09-19T10:13:14;25.20;99.90
14775;DHT22;7479;47.042;15.160;2023-09-19T10:18:11;25.40;99.90
14775;DHT22;7479;47.042;15.160;2023-09-19T10:23:10;25.60;99.90
14775;DHT22;7479;47.042;15.160;2023-09-19T10:28:06;25.30;99.90
14775;DHT22;7479;47.042;15.160;2023-09-19T10:33:06;25.70;99.90
14775;DHT22;7479;47.042;15.160;2023-09-19T10:38:01;26.10;99.90
14775;DHT22;7479;47.042;15.160;2023-09-19T10:42:59;26.50;99.90
14775;DHT22;7479;47.042;15.160;2023-09-19T10:47:54;26.90;99.90
14775;DHT22;7479;47.042;15.160;2023-09-19T10:52:50;27.10;99.90
14775;DHT22;7479;47.042;15.160;2023-09-19T10:57:50;27.10;99.90
14775;DHT22;7479;47.042;15.160;2023-09-19T11:02:44;27.40;99.90
14775;DHT22;7479;47.042;15.160;2023-09-19T11:08:00;27.50;99.40
14775;DHT22;7479;47.042;15.160;2023-09-19T11:12:56;27.20;98.20
14775;DHT22;7479;47.042;15.160;2023-09-19T11:17:50;27.50;97.50
14775;DHT22;7479;47.042;15.160;2023-09-19T11:28:35;28.70;95.30
14775;DHT22;7479;47.042;15.160;2023-09-19T11:33:32;28.90;93.90
14775;DHT22;7479;47.042;15.160;2023-09-19T11:39:00;29.00;92.40
14775;DHT22;7479;47.042;15.160;2023-09-19T11:44:34;29.00;92.10
14775;DHT22;7479;47.042;15.160;2023-09-19T11:49:31;29.30;91.10
14775;DHT22;7479;47.042;15.160;2023-09-19T11:54:27;29.60;90.30
14775;DHT22;7479;47.042;15.160;2023-09-19T11:59:25;29.40;91.70
14775;DHT22;7479;47.042;15.160;2023-09-19T12:04:33;29.20;91.90
14775;DHT22;7479;47.042;15.160;2023-09-19T12:09:30;28.80;91.20
14775;DHT22;7479;47.042;15.160;2023-09-19T12:14:24;28.20;91.40
14775;DHT22;7479;47.042;15.160;2023-09-19T12:19:19;28.00;92.10
14775;DHT22;7479;47.042;15.160;2023-09-19T12:24:16;27.50;92.30
14775;DHT22;7479;47.042;15.160;2023-09-19T12:29:16;27.70;92.80
14775;DHT22;7479;47.042;15.160;2023-09-19T12:34:16;28.50;91.80
14775;DHT22;7479;47.042;15.160;2023-09-19T12:39:21;29.80;89.80
14775;DHT22;7479;47.042;15.160;2023-09-19T12:44:17;30.60;85.70
14775;DHT22;7479;47.042;15.160;2023-09-19T12:49:18;30.60;84.40
14775;DHT22;7479;47.042;15.160;2023-09-19T12:54:12;30.70;82.90
14775;DHT22;7479;47.042;15.160;2023-09-19T12:59:07;29.70;83.30
14775;DHT22;7479;47.042;15.160;2023-09-19T13:04:13;28.60;87.60
14775;DHT22;7479;47.042;15.160;2023-09-19T13:09:11;27.90;90.30
14775;DHT22;7479;47.042;15.160;2023-09-19T13:14:18;27.60;91.50
14775;DHT22;7479;47.042;15.160;2023-09-19T13:19:38;27.40;92.00
14775;DHT22;7479;47.042;15.160;2023-09-19T13:24:33;28.10;91.80
14775;DHT22;7479;47.042;15.160;2023-09-19T13:29:29;28.90;90.20
14775;DHT22;7479;47.042;15.160;2023-09-19T13:34:25;29.40;90.00
14775;DHT22;7479;47.042;15.160;2023-09-19T13:39:21;30.10;87.80
14775;DHT22;7479;47.042;15.160;2023-09-19T13:44:16;30.70;85.40
14775;DHT22;7479;47.042;15.160;2023-09-19T13:49:10;31.10;83.20
14775;DHT22;7479;47.042;15.160;2023-09-19T13:54:06;31.50;80.40
14775;DHT22;7479;47.042;15.160;2023-09-19T13:59:00;32.00;80.20
14775;DHT22;7479;47.042;15.160;2023-09-19T14:03:53;32.60;79.10
14775;DHT22;7479;47.042;15.160;2023-09-19T14:08:49;33.60;76.10
14775;DHT22;7479;47.042;15.160;2023-09-19T14:13:44;35.00;73.90
14775;DHT22;7479;47.042;15.160;2023-09-19T14:18:41;37.00;68.60
14775;DHT22;7479;47.042;15.160;2023-09-19T14:23:35;37.80;64.60
14775;DHT22;7479;47.042;15.160;2023-09-19T14:28:29;34.50;67.80
14775;DHT22;7479;47.042;15.160;2023-09-19T14:33:24;32.00;72.70
14775;DHT22;7479;47.042;15.160;2023-09-19T14:38:19;29.30;80.60
14775;DHT22;7479;47.042;15.160;2023-09-19T14:43:12;28.70;84.80
14775;DHT22;7479;47.042;15.160;2023-09-19T14:48:06;30.20;83.00
14775;DHT22;7479;47.042;15.160;2023-09-19T14:53:05;31.70;81.10
14775;DHT22;7479;47.042;15.160;2023-09-19T14:58:03;34.40;72.80
14775;DHT22;7479;47.042;15.160;2023-09-19T15:02:57;36.00;69.60
14775;DHT22;7479;47.042;15.160;2023-09-19T15:07:50;37.80;64.30
14775;DHT22;7479;47.042;15.160;2023-09-19T15:12:46;37.90;61.40
14775;DHT22;7479;47.042;15.160;2023-09-19T15:17:40;35.20;64.30
14775;DHT22;7479;47.042;15.160;2023-09-19T15:22:34;31.50;71.60
14775;DHT22;7479;47.042;15.160;2023-09-19T15:27:28;28.80;80.10
14775;DHT22;7479;47.042;15.160;2023-09-19T15:32:24;27.50;86.00
14775;DHT22;7479;47.042;15.160;2023-09-19T15:37:18;26.80;90.30
14775;DHT22;7479;47.042;15.160;2023-09-19T15:42:12;29.10;86.30
14775;DHT22;7479;47.042;15.160;2023-09-19T15:47:08;27.70;90.30
14775;DHT22;7479;47.042;15.160;2023-09-19T15:52:03;28.40;90.70
14775;DHT22;7479;47.042;15.160;2023-09-19T15:56:57;28.60;90.40
14775;DHT22;7479;47.042;15.160;2023-09-19T16:01:50;29.20;89.80
14775;DHT22;7479;47.042;15.160;2023-09-19T16:06:44;27.40;91.60
14775;DHT22;7479;47.042;15.160;2023-09-19T16:11:40;26.00;94.90
14775;DHT22;7479;47.042;15.160;2023-09-19T16:16:34;25.40;96.80
14775;DHT22;7479;47.042;15.160;2023-09-19T16:21:29;25.00;97.70
14775;DHT22;7479;47.042;15.160;2023-09-19T16:26:23;24.70;98.90
14775;DHT22;7479;47.042;15.160;2023-09-19T16:31:18;24.50;99.90
14775;DHT22;7479;47.042;15.160;2023-09-19T16:36:14;24.30;99.90
14775;DHT22;7479;47.042;15.160;2023-09-19T16:41:09;23.90;99.90
14775;DHT22;7479;47.042;15.160;2023-09-19T16:46:05;23.60;99.90
14775;DHT22;7479;47.042;15.160;2023-09-19T16:51:05;23.40;99.90
14775;DHT22;7479;47.042;15.160;2023-09-19T16:56:01;23.10;99.90
14775;DHT22;7479;47.042;15.160;2023-09-19T17:00:58;23.00;99.90
14775;DHT22;7479;47.042;15.160;2023-09-19T17:05:56;22.90;99.90
14775;DHT22;7479;47.042;15.160;2023-09-19T17:10:51;22.70;99.90
14775;DHT22;7479;47.042;15.160;2023-09-19T17:15:45;22.60;99.90
14775;DHT22;7479;47.042;15.160;2023-09-19T17:20:41;22.50;99.90
14775;DHT22;7479;47.042;15.160;2023-09-19T17:25:34;22.40;99.90
14775;DHT22;7479;47.042;15.160;2023-09-19T17:30:30;22.20;99.90
14775;DHT22;7479;47.042;15.160;2023-09-19T17:35:24;22.00;99.90
14775;DHT22;7479;47.042;15.160;2023-09-19T17:40:17;21.80;99.90
14775;DHT22;7479;47.042;15.160;2023-09-19T18:19:31;20.80;99.90
